Gwinn, MI

4:12 AM EST on February 11, 2016 (GMT -0500)
Sawyer International | | Change Station
CLOSE
Current Station
Airport
Location: Gwinn,
Elevation: 1220 ft
Nearby Weather Stations
Active Advisory: Lake Effect Snow Advisory Active Notice: Local Storm Report

Elev 1220 ft 46.34 °N, 87.40 °W | Updated 15 minutes ago

Overcast
Overcast
6 °F
Feels Like -10 °F
N
12
Wind Variable Wind from NNW

Today
High -- | Low -- °F
--% Chance of Precip.
Yesterday
High -- | Low -- °F
Precip. -- in
Pressure 30.07 in
Visibility 7.0 miles
Clouds Scattered Clouds 1000 ft
Mostly Cloudy 2400 ft
Overcast 4100 ft
Windchill -10 °F
Dew Point 1 °F
Humidity 82%
Rainfall 0.00 in
Snow Depth Not available.
8:00 AM 6:08 PM
Waxing Crescent, 10% visible
METAR KSAW 110857Z AUTO 33010KT 7SM -SN SCT010 BKN024 OVC041 M15/M17 A3007 RMK AO2 T11461171
Pressure 30.07 in
Visibility 7.0 miles
Clouds Scattered Clouds 1000 ft
Mostly Cloudy 2400 ft
Overcast 4100 ft
Windchill -10 °F
Dew Point 1 °F
Humidity 82%
Rainfall 0.00 in
Snow Depth Not available.
8:00 AM 6:08 PM
Waxing Crescent, 10% visible
METAR KSAW 110857Z AUTO 33010KT 7SM -SN SCT010 BKN024 OVC041 M15/M17 A3007 RMK AO2 T11461171

10-Day Weather Forecast

Almanac

Astronomy

Feb. 11, 2016 Rise Set
Actual Time
Civil Twilight
Nautical Twilight
Astronomical Twilight
Moon
Length of Visible Light
Length of Day
Tomorrow will be .
, % of the Moon is Illuminated

Today's Extremes

State Highs State Lows

Community

WunderPhotos

Upload Photos

1,892,030 photos uploaded!

WunderBlog® & News

Nearby

Air Quality

  Air Quality AQ Index Pollutant
Not available.

Snow Depth

Station Depth Elevation

Earthquake Activity

City Distance Mag. Time & Date
Minimum magnitude displayed is 2.5.

Coastal Water Temperatures

Place Temperature

Stations

Nearby Weather Stations

Station Location Temp. Windchill Dew Point Humidity Wind Precip. Elev Updated Type
                   

Watches & Warnings

Lake Effect Snow Advisory
Issued: 9:20 PM EST Feb. 10, 2016 – National Weather Service

... Lake effect Snow Advisory remains in effect until 7 am EST
Thursday...

* moderate lake effect snow showers will continue mainly east of
   Marquette into the overnight hours before diminishing.

* Expect additional snow accumulations of 1 to 3 inches with the
   greatest amounts over the Huron Mountains and along and east of a
   line from Harvey to Skandia. Less than an inch of snow is expected
   elsewhere across Marquette County.

Impacts...

* north winds gusting to around 20 mph will create areas of blowing
   snow... especially in open areas near Lake Superior. The snow and
   blowing snow will result in brief white out conditions near Lake
   Superior from Harvey to Shot Point into the overnight hours.

Precautionary/preparedness actions...

* a lake effect Snow Advisory Means Lake effect snow is
   forecast that will make travel difficult in some areas.

* Prepare... plan... and stay informed. Visit www.Weather.Gov/MQT



Voss